sensor_id;sensor_type;location;lat;lon;timestamp;pressure;altitude;pressure_sealevel;temperature;humidity
69184;BME280;56291;53.960;27.550;2022-07-25T00:01:13;98821.03;;;16.50;70.23
69184;BME280;56291;53.960;27.550;2022-07-25T00:03:39;98816.25;;;16.45;70.20
69184;BME280;56291;53.960;27.550;2022-07-25T00:06:06;98821.56;;;16.45;70.60
69184;BME280;56291;53.960;27.550;2022-07-25T00:08:32;98827.53;;;16.47;70.36
69184;BME280;56291;53.960;27.550;2022-07-25T05:34:15;98930.19;;;17.06;66.68
69184;BME280;56291;53.960;27.550;2022-07-25T05:36:41;98928.00;;;17.10;66.33
69184;BME280;56291;53.960;27.550;2022-07-25T05:39:07;98927.44;;;17.15;65.70
69184;BME280;56291;53.960;27.550;2022-07-25T05:41:34;98917.50;;;17.23;65.99
69184;BME280;56291;53.960;27.550;2022-07-25T05:44:00;98919.75;;;17.26;65.77
69184;BME280;56291;53.960;27.550;2022-07-25T05:46:26;98917.56;;;17.30;65.69
69184;BME280;56291;53.960;27.550;2022-07-25T05:48:53;98919.25;;;17.38;65.28
69184;BME280;56291;53.960;27.550;2022-07-25T05:51:19;98911.53;;;17.43;65.13
69184;BME280;56291;53.960;27.550;2022-07-25T05:53:45;98910.59;;;17.51;65.12
69184;BME280;56291;53.960;27.550;2022-07-25T05:56:12;98906.97;;;17.58;64.90
69184;BME280;56291;53.960;27.550;2022-07-25T05:58:38;98903.78;;;17.70;65.20
69184;BME280;56291;53.960;27.550;2022-07-25T06:01:13;98915.56;;;17.82;64.76
69184;BME280;56291;53.960;27.550;2022-07-25T06:03:41;98915.19;;;17.85;63.85
69184;BME280;56291;53.960;27.550;2022-07-25T06:06:09;98915.63;;;17.89;63.76
69184;BME280;56291;53.960;27.550;2022-07-25T06:08:36;98916.06;;;17.92;63.76
69184;BME280;56291;53.960;27.550;2022-07-25T06:11:04;98917.13;;;17.98;63.34
69184;BME280;56291;53.960;27.550;2022-07-25T06:13:32;98911.09;;;18.11;63.36
69184;BME280;56291;53.960;27.550;2022-07-25T06:15:58;98911.13;;;18.18;63.13
69184;BME280;56291;53.960;27.550;2022-07-25T06:18:25;98905.06;;;18.30;62.91
69184;BME280;56291;53.960;27.550;2022-07-25T06:20:52;98897.97;;;18.44;62.74
69184;BME280;56291;53.960;27.550;2022-07-25T06:23:18;98907.25;;;18.55;61.68
69184;BME280;56291;53.960;27.550;2022-07-25T06:25:47;98913.41;;;18.62;61.50
69184;BME280;56291;53.960;27.550;2022-07-25T06:28:13;98915.31;;;18.69;60.87
69184;BME280;56291;53.960;27.550;2022-07-25T06:30:44;98917.53;;;18.65;60.27
69184;BME280;56291;53.960;27.550;2022-07-25T06:33:11;98910.41;;;18.79;60.31
69184;BME280;56291;53.960;27.550;2022-07-25T06:35:38;98909.91;;;18.97;59.95
69184;BME280;56291;53.960;27.550;2022-07-25T06:38:04;98900.28;;;19.03;60.02
69184;BME280;56291;53.960;27.550;2022-07-25T06:40:31;98906.69;;;19.15;59.63
69184;BME280;56291;53.960;27.550;2022-07-25T06:42:57;98910.38;;;19.21;59.31
69184;BME280;56291;53.960;27.550;2022-07-25T06:45:23;98907.31;;;19.44;58.90
69184;BME280;56291;53.960;27.550;2022-07-25T06:47:50;98898.50;;;19.57;58.01
69184;BME280;56291;53.960;27.550;2022-07-25T06:50:17;98906.94;;;19.60;58.27
69184;BME280;56291;53.960;27.550;2022-07-25T06:52:44;98895.66;;;19.78;57.45
69184;BME280;56291;53.960;27.550;2022-07-25T06:55:12;98898.31;;;19.92;57.34
69184;BME280;56291;53.960;27.550;2022-07-25T06:57:40;98903.88;;;20.10;57.30
69184;BME280;56291;53.960;27.550;2022-07-25T07:00:11;98889.44;;;20.18;57.56
69184;BME280;56291;53.960;27.550;2022-07-25T07:02:54;98899.31;;;20.17;56.51
69184;BME280;56291;53.960;27.550;2022-07-25T07:05:22;98895.22;;;20.22;56.46
69184;BME280;56291;53.960;27.550;2022-07-25T07:07:49;98889.81;;;20.28;56.76
69184;BME280;56291;53.960;27.550;2022-07-25T07:10:16;98885.03;;;20.50;57.91
69184;BME280;56291;53.960;27.550;2022-07-25T07:12:43;98892.81;;;20.72;58.12
69184;BME280;56291;53.960;27.550;2022-07-25T07:15:10;98880.44;;;20.78;55.63
69184;BME280;56291;53.960;27.550;2022-07-25T07:17:37;98876.00;;;20.97;57.47
69184;BME280;56291;53.960;27.550;2022-07-25T07:20:05;98877.00;;;21.02;56.02
69184;BME280;56291;53.960;27.550;2022-07-25T07:22:31;98872.72;;;21.01;56.06
69184;BME280;56291;53.960;27.550;2022-07-25T07:24:57;98886.19;;;21.20;54.81
69184;BME280;56291;53.960;27.550;2022-07-25T07:27:24;98876.69;;;21.24;53.99
69184;BME280;56291;53.960;27.550;2022-07-25T07:29:50;98882.59;;;21.33;55.46
69184;BME280;56291;53.960;27.550;2022-07-25T07:32:16;98876.50;;;21.51;55.24
69184;BME280;56291;53.960;27.550;2022-07-25T07:34:43;98879.44;;;21.43;52.64
69184;BME280;56291;53.960;27.550;2022-07-25T07:37:09;98874.22;;;21.54;54.37
69184;BME280;56291;53.960;27.550;2022-07-25T07:39:36;98876.94;;;21.48;53.70
69184;BME280;56291;53.960;27.550;2022-07-25T07:42:02;98871.22;;;21.69;53.13
69184;BME280;56291;53.960;27.550;2022-07-25T07:44:28;98871.69;;;21.85;53.82
69184;BME280;56291;53.960;27.550;2022-07-25T07:46:55;98868.03;;;21.79;53.81
69184;BME280;56291;53.960;27.550;2022-07-25T07:49:21;98869.63;;;21.87;53.52
69184;BME280;56291;53.960;27.550;2022-07-25T07:51:47;98869.63;;;21.87;53.45
69184;BME280;56291;53.960;27.550;2022-07-25T07:54:13;98872.66;;;21.90;51.66
69184;BME280;56291;53.960;27.550;2022-07-25T07:56:58;98872.44;;;21.92;50.97
69184;BME280;56291;53.960;27.550;2022-07-25T07:59:25;98877.41;;;22.14;52.71
69184;BME280;56291;53.960;27.550;2022-07-25T08:01:51;98874.72;;;22.14;51.83
69184;BME280;56291;53.960;27.550;2022-07-25T08:04:17;98864.75;;;22.21;50.34
69184;BME280;56291;53.960;27.550;2022-07-25T08:06:44;98866.88;;;22.37;51.72
69184;BME280;56291;53.960;27.550;2022-07-25T08:09:10;98879.06;;;22.33;51.09
69184;BME280;56291;53.960;27.550;2022-07-25T08:11:36;98866.53;;;22.46;50.48
69184;BME280;56291;53.960;27.550;2022-07-25T08:14:02;98873.84;;;22.57;48.18
69184;BME280;56291;53.960;27.550;2022-07-25T08:16:30;98874.97;;;22.49;48.31
69184;BME280;56291;53.960;27.550;2022-07-25T08:18:56;98877.78;;;22.73;49.48
69184;BME280;56291;53.960;27.550;2022-07-25T08:21:22;98878.41;;;22.87;49.12
69184;BME280;56291;53.960;27.550;2022-07-25T08:23:49;98875.66;;;22.93;45.69
69184;BME280;56291;53.960;27.550;2022-07-25T08:26:15;98887.44;;;23.04;49.29
69184;BME280;56291;53.960;27.550;2022-07-25T08:28:42;98881.38;;;22.97;47.13
69184;BME280;56291;53.960;27.550;2022-07-25T08:31:08;98870.09;;;23.07;46.74
69184;BME280;56291;53.960;27.550;2022-07-25T08:33:35;98872.38;;;23.22;45.95
69184;BME280;56291;53.960;27.550;2022-07-25T08:36:01;98878.03;;;23.44;46.62
69184;BME280;56291;53.960;27.550;2022-07-25T08:38:28;98877.00;;;23.69;48.16
69184;BME280;56291;53.960;27.550;2022-07-25T08:40:56;98873.84;;;23.60;43.70
69184;BME280;56291;53.960;27.550;2022-07-25T08:43:23;98883.44;;;23.80;46.81
69184;BME280;56291;53.960;27.550;2022-07-25T08:45:54;98879.13;;;24.02;46.42
69184;BME280;56291;53.960;27.550;2022-07-25T08:48:22;98888.34;;;24.18;46.34
69184;BME280;56291;53.960;27.550;2022-07-25T08:50:51;98890.09;;;24.24;45.78
69184;BME280;56291;53.960;27.550;2022-07-25T08:53:19;98884.94;;;24.46;45.41
69184;BME280;56291;53.960;27.550;2022-07-25T08:55:46;98875.91;;;24.53;44.93
69184;BME280;56291;53.960;27.550;2022-07-25T08:58:15;98880.00;;;24.55;40.65
69184;BME280;56291;53.960;27.550;2022-07-25T09:00:45;98874.59;;;24.67;43.08
69184;BME280;56291;53.960;27.550;2022-07-25T09:03:12;98886.19;;;24.96;44.31
69184;BME280;56291;53.960;27.550;2022-07-25T09:05:40;98894.91;;;25.04;43.71
69184;BME280;56291;53.960;27.550;2022-07-25T09:08:13;98878.34;;;25.24;44.14
69184;BME280;56291;53.960;27.550;2022-07-25T09:10:50;98889.81;;;25.48;43.78
69184;BME280;56291;53.960;27.550;2022-07-25T09:13:33;98881.56;;;25.55;41.12
69184;BME280;56291;53.960;27.550;2022-07-25T09:16:03;98885.97;;;25.78;42.41
69184;BME280;56291;53.960;27.550;2022-07-25T09:18:32;98886.59;;;25.85;43.11
69184;BME280;56291;53.960;27.550;2022-07-25T09:21:02;98892.16;;;25.95;42.64
69184;BME280;56291;53.960;27.550;2022-07-25T09:23:36;98891.56;;;26.27;41.49
69184;BME280;56291;53.960;27.550;2022-07-25T09:26:44;98892.38;;;26.28;42.14
69184;BME280;56291;53.960;27.550;2022-07-25T09:29:29;98887.41;;;26.64;43.04
69184;BME280;56291;53.960;27.550;2022-07-25T09:31:57;98882.22;;;26.79;42.10
69184;BME280;56291;53.960;27.550;2022-07-25T09:34:39;98892.81;;;26.86;40.43
69184;BME280;56291;53.960;27.550;2022-07-25T09:37:09;98891.09;;;27.02;42.53
69184;BME280;56291;53.960;27.550;2022-07-25T09:39:48;98880.31;;;27.34;42.20
69184;BME280;56291;53.960;27.550;2022-07-25T09:42:30;98883.84;;;27.35;42.12
69184;BME280;56291;53.960;27.550;2022-07-25T09:45:08;98885.56;;;27.41;41.99
69184;BME280;56291;53.960;27.550;2022-07-25T09:47:48;98890.25;;;27.56;41.09
69184;BME280;56291;53.960;27.550;2022-07-25T09:50:18;98885.22;;;27.70;40.93
69184;BME280;56291;53.960;27.550;2022-07-25T09:52:45;98885.91;;;27.88;40.89
69184;BME280;56291;53.960;27.550;2022-07-25T09:55:12;98882.59;;;27.80;40.67
69184;BME280;56291;53.960;27.550;2022-07-25T09:57:43;98889.03;;;27.69;40.66
69184;BME280;56291;53.960;27.550;2022-07-25T10:00:19;98881.59;;;27.92;40.95
69184;BME280;56291;53.960;27.550;2022-07-25T10:02:49;98883.44;;;28.29;39.79
69184;BME280;56291;53.960;27.550;2022-07-25T10:07:53;98882.91;;;28.27;37.68
69184;BME280;56291;53.960;27.550;2022-07-25T10:10:35;98883.72;;;28.27;38.01
69184;BME280;56291;53.960;27.550;2022-07-25T10:13:10;98890.75;;;28.33;39.96
69184;BME280;56291;53.960;27.550;2022-07-25T10:15:53;98880.00;;;28.44;38.94
69184;BME280;56291;53.960;27.550;2022-07-25T10:19:01;98883.00;;;28.52;39.83
69184;BME280;56291;53.960;27.550;2022-07-25T10:21:28;98889.22;;;28.53;39.30
69184;BME280;56291;53.960;27.550;2022-07-25T10:24:11;98883.56;;;28.60;38.55
69184;BME280;56291;53.960;27.550;2022-07-25T10:26:38;98880.06;;;28.59;38.88
69184;BME280;56291;53.960;27.550;2022-07-25T10:29:22;98882.06;;;28.95;40.26
69184;BME280;56291;53.960;27.550;2022-07-25T10:32:05;98879.09;;;28.86;34.16
69184;BME280;56291;53.960;27.550;2022-07-25T10:34:32;98873.16;;;28.94;40.79
69184;BME280;56291;53.960;27.550;2022-07-25T10:37:15;98879.41;;;29.15;38.23
69184;BME280;56291;53.960;27.550;2022-07-25T10:39:45;98883.22;;;29.40;38.57
69184;BME280;56291;53.960;27.550;2022-07-25T10:42:21;98886.50;;;29.42;38.14
69184;BME280;56291;53.960;27.550;2022-07-25T10:45:00;98882.97;;;29.62;38.02
69184;BME280;56291;53.960;27.550;2022-07-25T10:47:36;98886.22;;;29.64;38.00
69184;BME280;56291;53.960;27.550;2022-07-25T10:50:10;98884.28;;;29.80;39.18
69184;BME280;56291;53.960;27.550;2022-07-25T10:52:43;98884.84;;;29.87;37.98
69184;BME280;56291;53.960;27.550;2022-07-25T10:55:38;98876.72;;;29.72;36.52
69184;BME280;56291;53.960;27.550;2022-07-25T10:58:06;98883.50;;;29.64;35.28
69184;BME280;56291;53.960;27.550;2022-07-25T11:00:34;98881.34;;;29.51;35.19
69184;BME280;56291;53.960;27.550;2022-07-25T11:03:11;98885.94;;;29.55;36.25
69184;BME280;56291;53.960;27.550;2022-07-25T11:06:00;98884.84;;;29.56;35.47
69184;BME280;56291;53.960;27.550;2022-07-25T11:08:33;98883.78;;;29.63;35.88
69184;BME280;56291;53.960;27.550;2022-07-25T11:11:01;98885.41;;;29.74;35.48
69184;BME280;56291;53.960;27.550;2022-07-25T11:13:27;98885.41;;;29.59;33.36
69184;BME280;56291;53.960;27.550;2022-07-25T11:15:57;98887.03;;;29.60;35.47
69184;BME280;56291;53.960;27.550;2022-07-25T11:18:35;98890.81;;;29.33;34.60
69184;BME280;56291;53.960;27.550;2022-07-25T11:21:03;98882.97;;;29.47;35.70
69184;BME280;56291;53.960;27.550;2022-07-25T11:23:30;98881.03;;;29.21;34.67
69184;BME280;56291;53.960;27.550;2022-07-25T11:26:04;98873.47;;;29.34;34.91
69184;BME280;56291;53.960;27.550;2022-07-25T11:28:45;98869.69;;;29.45;35.75
69184;BME280;56291;53.960;27.550;2022-07-25T11:31:13;98873.75;;;29.43;35.22
69184;BME280;56291;53.960;27.550;2022-07-25T11:33:43;98874.22;;;29.03;32.21
69184;BME280;56291;53.960;27.550;2022-07-25T11:36:11;98883.19;;;29.04;34.27
69184;BME280;56291;53.960;27.550;2022-07-25T11:38:41;98877.25;;;29.12;34.71
69184;BME280;56291;53.960;27.550;2022-07-25T11:41:28;98879.94;;;29.22;34.48
69184;BME280;56291;53.960;27.550;2022-07-25T11:43:56;98884.81;;;29.10;32.75
69184;BME280;56291;53.960;27.550;2022-07-25T11:46:23;98882.38;;;29.14;35.05
69184;BME280;56291;53.960;27.550;2022-07-25T11:48:49;98879.66;;;28.98;34.20
69184;BME280;56291;53.960;27.550;2022-07-25T11:51:24;98877.28;;;29.33;34.27
69184;BME280;56291;53.960;27.550;2022-07-25T11:53:50;98879.72;;;29.45;34.55
69184;BME280;56291;53.960;27.550;2022-07-25T11:56:22;98880.53;;;29.35;33.30
69184;BME280;56291;53.960;27.550;2022-07-25T11:58:58;98870.25;;;29.42;33.83
69184;BME280;56291;53.960;27.550;2022-07-25T12:01:32;98874.03;;;29.56;33.89
69184;BME280;56291;53.960;27.550;2022-07-25T12:04:17;98871.88;;;29.43;33.35
69184;BME280;56291;53.960;27.550;2022-07-25T12:06:47;98875.09;;;29.66;34.15
69184;BME280;56291;53.960;27.550;2022-07-25T12:09:18;98872.91;;;29.83;33.75
69184;BME280;56291;53.960;27.550;2022-07-25T12:11:47;98877.00;;;29.86;34.07
69184;BME280;56291;53.960;27.550;2022-07-25T12:14:17;98865.03;;;30.02;34.48
69184;BME280;56291;53.960;27.550;2022-07-25T12:16:45;98874.53;;;30.05;34.58
69184;BME280;56291;53.960;27.550;2022-07-25T12:19:19;98861.78;;;30.00;34.44
69184;BME280;56291;53.960;27.550;2022-07-25T12:21:47;98871.78;;;30.15;34.29
69184;BME280;56291;53.960;27.550;2022-07-25T12:24:13;98866.34;;;30.15;33.76
69184;BME280;56291;53.960;27.550;2022-07-25T12:26:42;98872.88;;;30.09;33.67
69184;BME280;56291;53.960;27.550;2022-07-25T12:29:13;98871.81;;;30.05;33.59
69184;BME280;56291;53.960;27.550;2022-07-25T12:31:39;98868.31;;;29.94;33.88
69184;BME280;56291;53.960;27.550;2022-07-25T12:34:28;98869.66;;;29.76;32.52
69184;BME280;56291;53.960;27.550;2022-07-25T12:36:56;98855.06;;;29.62;32.79
69184;BME280;56291;53.960;27.550;2022-07-25T12:39:24;98858.81;;;29.86;35.00
69184;BME280;56291;53.960;27.550;2022-07-25T12:41:50;98860.44;;;29.98;34.39
69184;BME280;56291;53.960;27.550;2022-07-25T12:44:19;98867.47;;;29.99;35.00
69184;BME280;56291;53.960;27.550;2022-07-25T12:46:46;98855.28;;;29.81;32.59
69184;BME280;56291;53.960;27.550;2022-07-25T12:49:12;98844.97;;;29.83;33.97
69184;BME280;56291;53.960;27.550;2022-07-25T12:51:41;98840.63;;;29.97;34.05
69184;BME280;56291;53.960;27.550;2022-07-25T12:54:07;98831.66;;;30.02;31.93
69184;BME280;56291;53.960;27.550;2022-07-25T12:56:36;98843.06;;;30.04;31.78
69184;BME280;56291;53.960;27.550;2022-07-25T12:59:04;98838.66;;;30.18;33.95
69184;BME280;56291;53.960;27.550;2022-07-25T13:01:30;98835.38;;;30.27;33.72
69184;BME280;56291;53.960;27.550;2022-07-25T13:03:58;98837.75;;;30.44;33.87
69184;BME280;56291;53.960;27.550;2022-07-25T13:06:26;98834.47;;;30.57;33.85
69184;BME280;56291;53.960;27.550;2022-07-25T13:09:00;98825.56;;;30.86;34.17
69184;BME280;56291;53.960;27.550;2022-07-25T13:11:28;98816.50;;;31.01;33.93
69184;BME280;56291;53.960;27.550;2022-07-25T13:13:56;98818.41;;;31.05;33.96
69184;BME280;56291;53.960;27.550;2022-07-25T13:16:25;98824.28;;;31.18;33.45
69184;BME280;56291;53.960;27.550;2022-07-25T13:18:51;98819.31;;;31.30;33.72
69184;BME280;56291;53.960;27.550;2022-07-25T13:21:19;98823.03;;;31.39;33.16
69184;BME280;56291;53.960;27.550;2022-07-25T13:23:46;98819.44;;;31.44;33.05
69184;BME280;56291;53.960;27.550;2022-07-25T13:26:13;98827.03;;;31.47;33.28
69184;BME280;56291;53.960;27.550;2022-07-25T13:28:40;98815.56;;;31.50;32.93
69184;BME280;56291;53.960;27.550;2022-07-25T13:31:06;98820.09;;;31.65;33.16
69184;BME280;56291;53.960;27.550;2022-07-25T13:33:36;98819.28;;;31.65;32.12
69184;BME280;56291;53.960;27.550;2022-07-25T13:36:02;98813.56;;;31.66;32.81
69184;BME280;56291;53.960;27.550;2022-07-25T13:38:30;98807.53;;;31.69;32.75
69184;BME280;56291;53.960;27.550;2022-07-25T13:40:56;98811.06;;;31.70;32.74
69184;BME280;56291;53.960;27.550;2022-07-25T13:43:22;98812.84;;;31.80;33.40
69184;BME280;56291;53.960;27.550;2022-07-25T13:45:49;98803.56;;;31.86;33.97
69184;BME280;56291;53.960;27.550;2022-07-25T13:48:17;98814.91;;;31.93;33.57
69184;BME280;56291;53.960;27.550;2022-07-25T13:50:43;98806.09;;;32.01;33.66
69184;BME280;56291;53.960;27.550;2022-07-25T13:53:19;98800.66;;;32.01;32.99
69184;BME280;56291;53.960;27.550;2022-07-25T13:55:49;98800.81;;;32.10;33.65
69184;BME280;56291;53.960;27.550;2022-07-25T13:58:16;98808.75;;;32.06;33.91
69184;BME280;56291;53.960;27.550;2022-07-25T14:00:43;98804.81;;;32.18;33.92
69184;BME280;56291;53.960;27.550;2022-07-25T14:03:10;98796.84;;;32.26;34.00
69184;BME280;56291;53.960;27.550;2022-07-25T14:05:38;98796.53;;;32.28;33.16
69184;BME280;56291;53.960;27.550;2022-07-25T14:08:06;98806.09;;;32.25;32.73
69184;BME280;56291;53.960;27.550;2022-07-25T14:10:34;98796.53;;;32.28;33.19
69184;BME280;56291;53.960;27.550;2022-07-25T14:13:04;98798.88;;;32.35;33.49
69184;BME280;56291;53.960;27.550;2022-07-25T14:15:32;98790.06;;;32.43;32.86
69184;BME280;56291;53.960;27.550;2022-07-25T14:17:59;98785.16;;;32.45;33.08
69184;BME280;56291;53.960;27.550;2022-07-25T14:20:32;98778.31;;;32.48;33.97
69184;BME280;56291;53.960;27.550;2022-07-25T14:25:32;98777.16;;;32.73;34.46
69184;BME280;56291;53.960;27.550;2022-07-25T14:27:59;98777.06;;;32.78;33.31
69184;BME280;56291;53.960;27.550;2022-07-25T14:30:26;98782.88;;;32.90;33.35
69184;BME280;56291;53.960;27.550;2022-07-25T14:32:52;98772.38;;;32.97;32.98
69184;BME280;56291;53.960;27.550;2022-07-25T14:35:18;98773.41;;;33.02;32.66
69184;BME280;56291;53.960;27.550;2022-07-25T14:37:45;98775.16;;;33.11;33.87
69184;BME280;56291;53.960;27.550;2022-07-25T14:40:13;98775.06;;;33.17;33.43
69184;BME280;56291;53.960;27.550;2022-07-25T14:42:40;98775.78;;;33.22;32.79
69184;BME280;56291;53.960;27.550;2022-07-25T14:45:07;98770.50;;;33.31;32.58
69184;BME280;56291;53.960;27.550;2022-07-25T14:47:34;98763.63;;;33.34;32.51
69184;BME280;56291;53.960;27.550;2022-07-25T14:50:00;98770.91;;;33.38;33.31
69184;BME280;56291;53.960;27.550;2022-07-25T14:52:26;98763.44;;;33.44;33.00
69184;BME280;56291;53.960;27.550;2022-07-25T14:54:53;98760.22;;;33.42;31.73
69184;BME280;56291;53.960;27.550;2022-07-25T14:57:19;98756.47;;;33.38;32.61
69184;BME280;56291;53.960;27.550;2022-07-25T14:59:45;98755.25;;;33.44;32.12
69184;BME280;56291;53.960;27.550;2022-07-25T15:02:12;98751.91;;;33.47;32.03
69184;BME280;56291;53.960;27.550;2022-07-25T15:04:38;98754.94;;;33.45;32.39
69184;BME280;56291;53.960;27.550;2022-07-25T15:07:05;98758.50;;;33.46;31.81
69184;BME280;56291;53.960;27.550;2022-07-25T15:09:31;98752.13;;;33.37;32.36
69184;BME280;56291;53.960;27.550;2022-07-25T15:11:58;98756.97;;;33.40;32.22
69184;BME280;56291;53.960;27.550;2022-07-25T15:14:24;98752.94;;;33.37;32.50
69184;BME280;56291;53.960;27.550;2022-07-25T15:16:50;98752.41;;;33.35;32.64
69184;BME280;56291;53.960;27.550;2022-07-25T15:19:17;98746.66;;;33.37;32.20
69184;BME280;56291;53.960;27.550;2022-07-25T15:21:44;98748.91;;;33.35;32.24
69184;BME280;56291;53.960;27.550;2022-07-25T15:24:11;98749.28;;;33.28;32.12
69184;BME280;56291;53.960;27.550;2022-07-25T15:26:37;98747.47;;;33.23;31.38
69184;BME280;56291;53.960;27.550;2022-07-25T15:29:06;98749.63;;;33.21;32.54
69184;BME280;56291;53.960;27.550;2022-07-25T15:31:34;98747.66;;;33.27;32.41
69184;BME280;56291;53.960;27.550;2022-07-25T15:34:01;98748.25;;;33.24;32.33
69184;BME280;56291;53.960;27.550;2022-07-25T15:36:27;98744.97;;;33.22;32.55
69184;BME280;56291;53.960;27.550;2022-07-25T15:38:53;98745.25;;;33.25;32.28
69184;BME280;56291;53.960;27.550;2022-07-25T15:41:20;98741.59;;;33.30;31.77
69184;BME280;56291;53.960;27.550;2022-07-25T15:43:46;98746.63;;;33.23;32.07
69184;BME280;56291;53.960;27.550;2022-07-25T15:46:12;98744.19;;;33.21;31.63
69184;BME280;56291;53.960;27.550;2022-07-25T15:48:39;98740.88;;;33.24;31.97
69184;BME280;56291;53.960;27.550;2022-07-25T15:51:07;98740.09;;;33.24;31.73
69184;BME280;56291;53.960;27.550;2022-07-25T15:53:34;98747.00;;;33.16;31.25
69184;BME280;56291;53.960;27.550;2022-07-25T15:56:00;98743.16;;;33.17;31.18
69184;BME280;56291;53.960;27.550;2022-07-25T15:58:26;98749.72;;;33.02;31.13
69184;BME280;56291;53.960;27.550;2022-07-25T16:00:53;98750.09;;;32.95;30.60
69184;BME280;56291;53.960;27.550;2022-07-25T16:03:19;98741.50;;;32.88;30.93
69184;BME280;56291;53.960;27.550;2022-07-25T16:05:46;98742.25;;;32.75;31.48
69184;BME280;56291;53.960;27.550;2022-07-25T16:08:12;98738.34;;;32.62;30.86
69184;BME280;56291;53.960;27.550;2022-07-25T16:10:39;98744.16;;;32.55;30.66
69184;BME280;56291;53.960;27.550;2022-07-25T16:13:05;98742.19;;;32.42;31.09
69184;BME280;56291;53.960;27.550;2022-07-25T16:15:32;98748.50;;;32.18;29.89
69184;BME280;56291;53.960;27.550;2022-07-25T16:17:58;98744.78;;;32.09;31.26
69184;BME280;56291;53.960;27.550;2022-07-25T16:20:24;98754.75;;;31.94;31.32
69184;BME280;56291;53.960;27.550;2022-07-25T16:22:51;98757.06;;;31.82;31.48
69184;BME280;56291;53.960;27.550;2022-07-25T16:25:22;98756.47;;;31.66;31.27
69184;BME280;56291;53.960;27.550;2022-07-25T16:27:49;98749.84;;;31.43;31.69
69184;BME280;56291;53.960;27.550;2022-07-25T16:30:15;98754.06;;;31.30;31.82
69184;BME280;56291;53.960;27.550;2022-07-25T16:32:41;98759.31;;;31.21;32.41
69184;BME280;56291;53.960;27.550;2022-07-25T16:35:08;98763.47;;;31.14;32.50
69184;BME280;56291;53.960;27.550;2022-07-25T16:37:34;98751.03;;;31.07;32.16
69184;BME280;56291;53.960;27.550;2022-07-25T16:40:00;98750.53;;;31.00;32.68
69184;BME280;56291;53.960;27.550;2022-07-25T16:42:28;98752.97;;;30.97;32.65
69184;BME280;56291;53.960;27.550;2022-07-25T16:44:54;98752.81;;;30.83;32.88
69184;BME280;56291;53.960;27.550;2022-07-25T16:47:20;98749.34;;;30.77;32.75
69184;BME280;56291;53.960;27.550;2022-07-25T16:49:46;98759.72;;;30.65;32.59
69184;BME280;56291;53.960;27.550;2022-07-25T16:52:13;98756.31;;;30.54;33.13
69184;BME280;56291;53.960;27.550;2022-07-25T16:54:39;98761.19;;;30.52;33.20
69184;BME280;56291;53.960;27.550;2022-07-25T16:57:05;98750.09;;;30.48;32.68
69184;BME280;56291;53.960;27.550;2022-07-25T16:59:32;98753.88;;;30.47;33.06
69184;BME280;56291;53.960;27.550;2022-07-25T17:01:58;98753.91;;;30.37;33.30
69184;BME280;56291;53.960;27.550;2022-07-25T17:04:24;98751.25;;;30.32;33.29
69184;BME280;56291;53.960;27.550;2022-07-25T17:06:50;98761.03;;;30.28;33.14
69184;BME280;56291;53.960;27.550;2022-07-25T17:09:17;98761.59;;;30.24;32.82
69184;BME280;56291;53.960;27.550;2022-07-25T17:11:43;98749.19;;;30.08;32.51
69184;BME280;56291;53.960;27.550;2022-07-25T17:14:09;98754.34;;;30.10;33.44
69184;BME280;56291;53.960;27.550;2022-07-25T17:16:35;98759.78;;;30.04;33.04
69184;BME280;56291;53.960;27.550;2022-07-25T17:19:02;98751.13;;;29.92;33.11
69184;BME280;56291;53.960;27.550;2022-07-25T17:21:29;98757.69;;;29.86;33.34
69184;BME280;56291;53.960;27.550;2022-07-25T17:23:55;98759.06;;;29.78;33.55
69184;BME280;56291;53.960;27.550;2022-07-25T17:26:21;98750.91;;;29.73;33.03
69184;BME280;56291;53.960;27.550;2022-07-25T17:28:48;98752.28;;;29.65;32.97
69184;BME280;56291;53.960;27.550;2022-07-25T17:31:14;98755.31;;;29.53;33.33
69184;BME280;56291;53.960;27.550;2022-07-25T17:33:41;98755.31;;;29.48;33.86
69184;BME280;56291;53.960;27.550;2022-07-25T17:36:07;98756.16;;;29.38;33.65
69184;BME280;56291;53.960;27.550;2022-07-25T17:38:34;98755.09;;;29.24;33.93
69184;BME280;56291;53.960;27.550;2022-07-25T17:41:01;98756.97;;;29.13;33.93
69184;BME280;56291;53.960;27.550;2022-07-25T17:43:28;98752.66;;;28.97;34.31
69184;BME280;56291;53.960;27.550;2022-07-25T17:45:55;98758.31;;;28.85;34.50
69184;BME280;56291;53.960;27.550;2022-07-25T17:48:21;98757.22;;;28.70;34.69
69184;BME280;56291;53.960;27.550;2022-07-25T17:50:47;98758.53;;;28.58;34.53
69184;BME280;56291;53.960;27.550;2022-07-25T17:53:14;98754.19;;;28.41;34.96
69184;BME280;56291;53.960;27.550;2022-07-25T17:55:43;98755.47;;;28.23;34.81
69184;BME280;56291;53.960;27.550;2022-07-25T17:58:10;98750.81;;;28.08;34.84
69184;BME280;56291;53.960;27.550;2022-07-25T18:00:37;98750.47;;;27.94;35.39
69184;BME280;56291;53.960;27.550;2022-07-25T18:03:04;98752.28;;;27.78;35.53
69184;BME280;56291;53.960;27.550;2022-07-25T18:05:30;98753.56;;;27.60;35.87
69184;BME280;56291;53.960;27.550;2022-07-25T18:07:56;98766.13;;;27.39;35.92
69184;BME280;56291;53.960;27.550;2022-07-25T18:10:23;98767.09;;;27.28;36.61
69184;BME280;56291;53.960;27.550;2022-07-25T18:12:49;98768.03;;;27.11;36.85
69184;BME280;56291;53.960;27.550;2022-07-25T18:15:16;98772.31;;;27.02;37.00
69184;BME280;56291;53.960;27.550;2022-07-25T18:17:44;98781.34;;;26.86;37.15
69184;BME280;56291;53.960;27.550;2022-07-25T18:20:11;98776.59;;;26.71;36.18
69184;BME280;56291;53.960;27.550;2022-07-25T18:22:38;98785.88;;;26.58;36.59
69184;BME280;56291;53.960;27.550;2022-07-25T18:25:07;98784.59;;;26.38;35.95
69184;BME280;56291;53.960;27.550;2022-07-25T18:27:39;98782.00;;;26.21;35.98